sensor_id;sensor_type;location;lat;lon;timestamp;P1;durP1;ratioP1;P2;durP2;ratioP2
62024;SDS011;47978;49.118;12.146;2023-05-20T00:00:02;12.90;;;7.82;;
62024;SDS011;47978;49.118;12.146;2023-05-20T00:04:04;12.83;;;8.63;;
62024;SDS011;47978;49.118;12.146;2023-05-20T00:08:06;14.18;;;7.97;;
62024;SDS011;47978;49.118;12.146;2023-05-20T00:12:09;13.10;;;8.00;;
62024;SDS011;47978;49.118;12.146;2023-05-20T00:16:10;12.80;;;7.13;;
62024;SDS011;47978;49.118;12.146;2023-05-20T00:20:12;14.73;;;8.52;;
62024;SDS011;47978;49.118;12.146;2023-05-20T00:24:13;13.90;;;8.00;;
62024;SDS011;47978;49.118;12.146;2023-05-20T00:28:16;13.93;;;7.85;;
62024;SDS011;47978;49.118;12.146;2023-05-20T00:32:18;13.05;;;8.57;;
62024;SDS011;47978;49.118;12.146;2023-05-20T00:36:19;11.95;;;8.10;;
62024;SDS011;47978;49.118;12.146;2023-05-20T00:40:21;15.30;;;8.55;;
62024;SDS011;47978;49.118;12.146;2023-05-20T00:44:24;15.57;;;8.50;;
62024;SDS011;47978;49.118;12.146;2023-05-20T00:48:26;20.38;;;8.98;;
62024;SDS011;47978;49.118;12.146;2023-05-20T00:52:32;13.02;;;8.15;;
62024;SDS011;47978;49.118;12.146;2023-05-20T00:56:35;18.03;;;8.73;;
62024;SDS011;47978;49.118;12.146;2023-05-20T01:00:38;16.80;;;9.77;;
62024;SDS011;47978;49.118;12.146;2023-05-20T01:04:40;16.13;;;8.95;;
62024;SDS011;47978;49.118;12.146;2023-05-20T01:08:41;16.15;;;9.73;;
62024;SDS011;47978;49.118;12.146;2023-05-20T01:12:44;16.20;;;8.90;;
62024;SDS011;47978;49.118;12.146;2023-05-20T01:16:50;16.77;;;9.80;;
62024;SDS011;47978;49.118;12.146;2023-05-20T01:20:53;18.05;;;9.32;;
62024;SDS011;47978;49.118;12.146;2023-05-20T01:24:57;12.68;;;8.25;;
62024;SDS011;47978;49.118;12.146;2023-05-20T01:28:59;14.75;;;9.50;;
62024;SDS011;47978;49.118;12.146;2023-05-20T01:33:01;18.05;;;9.98;;
62024;SDS011;47978;49.118;12.146;2023-05-20T01:37:07;16.70;;;9.18;;
62024;SDS011;47978;49.118;12.146;2023-05-20T01:41:11;17.33;;;10.75;;
62024;SDS011;47978;49.118;12.146;2023-05-20T01:49:14;18.48;;;10.10;;
62024;SDS011;47978;49.118;12.146;2023-05-20T01:53:16;19.42;;;11.75;;
62024;SDS011;47978;49.118;12.146;2023-05-20T01:57:19;16.70;;;9.52;;
62024;SDS011;47978;49.118;12.146;2023-05-20T02:01:22;16.52;;;10.13;;
62024;SDS011;47978;49.118;12.146;2023-05-20T02:05:23;15.10;;;9.07;;
62024;SDS011;47978;49.118;12.146;2023-05-20T02:09:25;22.40;;;10.90;;
62024;SDS011;47978;49.118;12.146;2023-05-20T02:13:28;15.32;;;10.68;;
62024;SDS011;47978;49.118;12.146;2023-05-20T02:17:30;20.10;;;10.88;;
62024;SDS011;47978;49.118;12.146;2023-05-20T02:21:32;18.92;;;10.30;;
62024;SDS011;47978;49.118;12.146;2023-05-20T02:25:33;20.52;;;12.07;;
62024;SDS011;47978;49.118;12.146;2023-05-20T02:29:36;16.77;;;9.77;;
62024;SDS011;47978;49.118;12.146;2023-05-20T02:33:38;18.83;;;10.02;;
62024;SDS011;47978;49.118;12.146;2023-05-20T02:37:39;19.10;;;10.77;;
62024;SDS011;47978;49.118;12.146;2023-05-20T02:41:41;19.30;;;12.18;;
62024;SDS011;47978;49.118;12.146;2023-05-20T02:45:44;22.10;;;9.88;;
62024;SDS011;47978;49.118;12.146;2023-05-20T02:49:45;20.63;;;11.43;;
62024;SDS011;47978;49.118;12.146;2023-05-20T02:53:47;22.02;;;11.55;;
62024;SDS011;47978;49.118;12.146;2023-05-20T02:57:49;19.38;;;12.10;;
62024;SDS011;47978;49.118;12.146;2023-05-20T03:01:51;19.42;;;12.02;;
62024;SDS011;47978;49.118;12.146;2023-05-20T03:05:53;16.02;;;9.82;;
62024;SDS011;47978;49.118;12.146;2023-05-20T03:09:55;23.45;;;13.20;;
62024;SDS011;47978;49.118;12.146;2023-05-20T03:13:56;21.90;;;12.30;;
62024;SDS011;47978;49.118;12.146;2023-05-20T03:17:59;19.67;;;11.85;;
62024;SDS011;47978;49.118;12.146;2023-05-20T03:22:01;21.98;;;12.30;;
62024;SDS011;47978;49.118;12.146;2023-05-20T03:26:02;19.00;;;11.80;;
62024;SDS011;47978;49.118;12.146;2023-05-20T03:30:05;22.10;;;12.52;;
62024;SDS011;47978;49.118;12.146;2023-05-20T03:38:10;22.00;;;12.37;;
62024;SDS011;47978;49.118;12.146;2023-05-20T03:42:11;29.30;;;13.68;;
62024;SDS011;47978;49.118;12.146;2023-05-20T03:46:13;30.50;;;13.50;;
62024;SDS011;47978;49.118;12.146;2023-05-20T03:50:16;22.73;;;13.70;;
62024;SDS011;47978;49.118;12.146;2023-05-20T03:54:18;20.25;;;12.52;;
62024;SDS011;47978;49.118;12.146;2023-05-20T03:58:19;26.17;;;14.00;;
62024;SDS011;47978;49.118;12.146;2023-05-20T04:02:21;22.33;;;13.23;;
62024;SDS011;47978;49.118;12.146;2023-05-20T04:06:24;25.70;;;14.40;;
62024;SDS011;47978;49.118;12.146;2023-05-20T04:10:25;28.40;;;15.02;;
62024;SDS011;47978;49.118;12.146;2023-05-20T04:14:27;26.05;;;14.73;;
62024;SDS011;47978;49.118;12.146;2023-05-20T04:18:29;29.15;;;14.27;;
62024;SDS011;47978;49.118;12.146;2023-05-20T04:22:32;22.90;;;14.27;;
62024;SDS011;47978;49.118;12.146;2023-05-20T04:30:35;26.50;;;13.95;;
62024;SDS011;47978;49.118;12.146;2023-05-20T04:34:36;29.10;;;13.70;;
62024;SDS011;47978;49.118;12.146;2023-05-20T04:38:39;24.23;;;14.27;;
62024;SDS011;47978;49.118;12.146;2023-05-20T04:42:41;22.38;;;13.30;;
62024;SDS011;47978;49.118;12.146;2023-05-20T04:46:42;26.65;;;14.45;;
62024;SDS011;47978;49.118;12.146;2023-05-20T04:50:44;25.35;;;14.63;;
62024;SDS011;47978;49.118;12.146;2023-05-20T04:54:47;22.60;;;14.15;;
62024;SDS011;47978;49.118;12.146;2023-05-20T04:58:48;27.45;;;14.73;;
62024;SDS011;47978;49.118;12.146;2023-05-20T05:02:50;21.77;;;13.27;;
62024;SDS011;47978;49.118;12.146;2023-05-20T05:06:52;24.92;;;13.85;;
62024;SDS011;47978;49.118;12.146;2023-05-20T05:10:55;26.33;;;14.07;;
62024;SDS011;47978;49.118;12.146;2023-05-20T05:14:56;27.17;;;14.32;;
62024;SDS011;47978;49.118;12.146;2023-05-20T05:18:58;23.92;;;13.27;;
62024;SDS011;47978;49.118;12.146;2023-05-20T05:22:59;22.50;;;13.95;;
62024;SDS011;47978;49.118;12.146;2023-05-20T05:27:03;21.30;;;13.63;;
62024;SDS011;47978;49.118;12.146;2023-05-20T05:31:04;22.92;;;12.48;;
62024;SDS011;47978;49.118;12.146;2023-05-20T05:35:06;19.65;;;11.38;;
62024;SDS011;47978;49.118;12.146;2023-05-20T05:39:08;22.80;;;12.20;;
62024;SDS011;47978;49.118;12.146;2023-05-20T05:43:11;19.45;;;12.85;;
62024;SDS011;47978;49.118;12.146;2023-05-20T05:47:13;15.85;;;12.00;;
62024;SDS011;47978;49.118;12.146;2023-05-20T05:51:15;15.70;;;11.82;;
62024;SDS011;47978;49.118;12.146;2023-05-20T05:55:17;18.67;;;12.63;;
62024;SDS011;47978;49.118;12.146;2023-05-20T05:59:20;19.27;;;11.15;;
62024;SDS011;47978;49.118;12.146;2023-05-20T06:07:24;27.23;;;12.23;;
62024;SDS011;47978;49.118;12.146;2023-05-20T06:11:25;19.77;;;11.23;;
62024;SDS011;47978;49.118;12.146;2023-05-20T06:15:28;17.77;;;10.93;;
62024;SDS011;47978;49.118;12.146;2023-05-20T06:19:30;16.45;;;10.52;;
62024;SDS011;47978;49.118;12.146;2023-05-20T06:23:31;16.55;;;11.07;;
62024;SDS011;47978;49.118;12.146;2023-05-20T06:27:33;15.85;;;11.20;;
62024;SDS011;47978;49.118;12.146;2023-05-20T06:31:36;17.08;;;10.50;;
62024;SDS011;47978;49.118;12.146;2023-05-20T06:39:39;14.93;;;11.55;;
62024;SDS011;47978;49.118;12.146;2023-05-20T06:43:41;15.90;;;11.25;;
62024;SDS011;47978;49.118;12.146;2023-05-20T06:47:44;14.15;;;9.73;;
62024;SDS011;47978;49.118;12.146;2023-05-20T06:51:46;16.70;;;10.95;;
62024;SDS011;47978;49.118;12.146;2023-05-20T06:55:48;15.45;;;11.05;;
62024;SDS011;47978;49.118;12.146;2023-05-20T06:59:50;14.25;;;10.75;;
62024;SDS011;47978;49.118;12.146;2023-05-20T07:03:53;15.73;;;10.30;;
62024;SDS011;47978;49.118;12.146;2023-05-20T07:07:54;15.27;;;10.35;;
62024;SDS011;47978;49.118;12.146;2023-05-20T07:11:56;17.55;;;10.60;;
62024;SDS011;47978;49.118;12.146;2023-05-20T07:15:58;16.83;;;10.55;;
62024;SDS011;47978;49.118;12.146;2023-05-20T07:20:02;16.00;;;11.38;;
62024;SDS011;47978;49.118;12.146;2023-05-20T07:24:04;17.38;;;10.18;;
62024;SDS011;47978;49.118;12.146;2023-05-20T07:28:06;14.47;;;10.33;;
62024;SDS011;47978;49.118;12.146;2023-05-20T07:32:08;18.10;;;10.85;;
62024;SDS011;47978;49.118;12.146;2023-05-20T07:36:11;15.20;;;10.40;;
62024;SDS011;47978;49.118;12.146;2023-05-20T07:40:13;16.35;;;11.77;;
62024;SDS011;47978;49.118;12.146;2023-05-20T07:44:14;15.98;;;11.15;;
62024;SDS011;47978;49.118;12.146;2023-05-20T07:48:16;17.23;;;11.95;;
62024;SDS011;47978;49.118;12.146;2023-05-20T07:52:19;15.20;;;10.95;;
62024;SDS011;47978;49.118;12.146;2023-05-20T07:56:21;12.57;;;10.02;;
62024;SDS011;47978;49.118;12.146;2023-05-20T08:00:22;16.77;;;10.27;;
62024;SDS011;47978;49.118;12.146;2023-05-20T08:04:24;20.30;;;10.33;;
62024;SDS011;47978;49.118;12.146;2023-05-20T08:08:27;13.80;;;10.50;;
62024;SDS011;47978;49.118;12.146;2023-05-20T08:12:29;17.67;;;10.75;;
62024;SDS011;47978;49.118;12.146;2023-05-20T08:16:31;16.75;;;11.27;;
62024;SDS011;47978;49.118;12.146;2023-05-20T08:20:32;15.35;;;10.35;;
62024;SDS011;47978;49.118;12.146;2023-05-20T08:24:35;16.48;;;9.85;;
62024;SDS011;47978;49.118;12.146;2023-05-20T08:28:37;15.65;;;10.95;;
62024;SDS011;47978;49.118;12.146;2023-05-20T08:32:39;13.82;;;10.23;;
62024;SDS011;47978;49.118;12.146;2023-05-20T08:36:40;17.33;;;11.35;;
62024;SDS011;47978;49.118;12.146;2023-05-20T08:40:43;13.85;;;10.45;;
62024;SDS011;47978;49.118;12.146;2023-05-20T08:44:45;18.60;;;11.25;;
62024;SDS011;47978;49.118;12.146;2023-05-20T08:48:47;16.00;;;10.98;;
62024;SDS011;47978;49.118;12.146;2023-05-20T08:52:49;15.87;;;11.43;;
62024;SDS011;47978;49.118;12.146;2023-05-20T08:56:52;14.40;;;10.23;;
62024;SDS011;47978;49.118;12.146;2023-05-20T09:00:54;18.05;;;11.90;;
62024;SDS011;47978;49.118;12.146;2023-05-20T09:04:55;14.98;;;10.23;;
62024;SDS011;47978;49.118;12.146;2023-05-20T09:08:57;13.55;;;10.32;;
62024;SDS011;47978;49.118;12.146;2023-05-20T09:13:02;14.25;;;11.07;;
62024;SDS011;47978;49.118;12.146;2023-05-20T09:17:04;16.90;;;10.50;;
62024;SDS011;47978;49.118;12.146;2023-05-20T09:21:06;17.20;;;11.27;;
62024;SDS011;47978;49.118;12.146;2023-05-20T09:25:08;15.95;;;10.55;;
62024;SDS011;47978;49.118;12.146;2023-05-20T09:29:11;26.50;;;11.93;;
62024;SDS011;47978;49.118;12.146;2023-05-20T09:33:12;16.10;;;10.15;;
62024;SDS011;47978;49.118;12.146;2023-05-20T09:37:16;16.77;;;10.75;;
62024;SDS011;47978;49.118;12.146;2023-05-20T09:41:19;20.63;;;11.40;;
62024;SDS011;47978;49.118;12.146;2023-05-20T09:45:25;15.73;;;10.48;;
62024;SDS011;47978;49.118;12.146;2023-05-20T09:49:27;13.75;;;10.75;;
62024;SDS011;47978;49.118;12.146;2023-05-20T09:53:31;21.25;;;10.70;;
62024;SDS011;47978;49.118;12.146;2023-05-20T09:57:32;20.30;;;10.83;;
62024;SDS011;47978;49.118;12.146;2023-05-20T10:01:36;14.85;;;10.50;;
62024;SDS011;47978;49.118;12.146;2023-05-20T10:05:39;16.35;;;10.23;;
62024;SDS011;47978;49.118;12.146;2023-05-20T10:09:49;15.73;;;10.43;;
62024;SDS011;47978;49.118;12.146;2023-05-20T10:14:09;15.70;;;10.07;;
62024;SDS011;47978;49.118;12.146;2023-05-20T10:18:29;15.98;;;10.15;;
62024;SDS011;47978;49.118;12.146;2023-05-20T10:22:42;19.02;;;10.50;;
62024;SDS011;47978;49.118;12.146;2023-05-20T10:26:43;14.23;;;10.52;;
62024;SDS011;47978;49.118;12.146;2023-05-20T10:30:55;15.52;;;10.50;;
62024;SDS011;47978;49.118;12.146;2023-05-20T10:34:59;26.07;;;10.63;;
62024;SDS011;47978;49.118;12.146;2023-05-20T10:39:02;14.23;;;9.90;;
62024;SDS011;47978;49.118;12.146;2023-05-20T10:43:07;14.18;;;9.52;;
62024;SDS011;47978;49.118;12.146;2023-05-20T10:47:09;14.27;;;9.65;;
62024;SDS011;47978;49.118;12.146;2023-05-20T10:51:16;14.50;;;9.63;;
62024;SDS011;47978;49.118;12.146;2023-05-20T10:55:18;16.90;;;10.48;;
62024;SDS011;47978;49.118;12.146;2023-05-20T10:59:19;15.60;;;10.77;;
62024;SDS011;47978;49.118;12.146;2023-05-20T11:03:21;17.93;;;11.17;;
62024;SDS011;47978;49.118;12.146;2023-05-20T11:07:26;20.65;;;11.15;;
62024;SDS011;47978;49.118;12.146;2023-05-20T11:11:28;17.95;;;10.88;;
62024;SDS011;47978;49.118;12.146;2023-05-20T11:15:30;15.02;;;9.98;;
62024;SDS011;47978;49.118;12.146;2023-05-20T11:19:32;17.42;;;10.43;;
62024;SDS011;47978;49.118;12.146;2023-05-20T11:23:35;17.27;;;11.75;;
62024;SDS011;47978;49.118;12.146;2023-05-20T11:27:39;15.82;;;11.20;;
62024;SDS011;47978;49.118;12.146;2023-05-20T11:31:41;15.52;;;11.15;;
62024;SDS011;47978;49.118;12.146;2023-05-20T11:35:43;16.98;;;11.30;;
62024;SDS011;47978;49.118;12.146;2023-05-20T11:39:47;15.70;;;10.95;;
62024;SDS011;47978;49.118;12.146;2023-05-20T11:43:53;16.52;;;11.20;;
62024;SDS011;47978;49.118;12.146;2023-05-20T11:48:00;14.75;;;10.25;;
62024;SDS011;47978;49.118;12.146;2023-05-20T11:52:03;16.67;;;11.50;;
62024;SDS011;47978;49.118;12.146;2023-05-20T11:56:06;15.67;;;10.57;;
62024;SDS011;47978;49.118;12.146;2023-05-20T12:00:07;14.50;;;11.00;;
62024;SDS011;47978;49.118;12.146;2023-05-20T12:04:10;15.60;;;11.43;;
62024;SDS011;47978;49.118;12.146;2023-05-20T12:08:12;15.68;;;10.82;;
62024;SDS011;47978;49.118;12.146;2023-05-20T12:12:16;17.00;;;10.00;;
62024;SDS011;47978;49.118;12.146;2023-05-20T12:16:17;16.08;;;11.48;;
62024;SDS011;47978;49.118;12.146;2023-05-20T12:20:19;14.70;;;8.57;;
62024;SDS011;47978;49.118;12.146;2023-05-20T12:24:22;14.93;;;10.52;;
62024;SDS011;47978;49.118;12.146;2023-05-20T12:28:25;18.48;;;10.68;;
62024;SDS011;47978;49.118;12.146;2023-05-20T12:32:26;12.88;;;9.85;;
62024;SDS011;47978;49.118;12.146;2023-05-20T12:36:28;15.82;;;10.32;;
62024;SDS011;47978;49.118;12.146;2023-05-20T12:40:29;13.88;;;10.05;;
62024;SDS011;47978;49.118;12.146;2023-05-20T12:44:32;16.13;;;10.20;;
62024;SDS011;47978;49.118;12.146;2023-05-20T12:48:34;13.32;;;10.10;;
62024;SDS011;47978;49.118;12.146;2023-05-20T12:52:35;14.13;;;10.55;;
62024;SDS011;47978;49.118;12.146;2023-05-20T12:56:37;13.55;;;9.48;;
62024;SDS011;47978;49.118;12.146;2023-05-20T13:00:40;14.77;;;10.25;;
62024;SDS011;47978;49.118;12.146;2023-05-20T13:04:42;14.07;;;10.23;;
62024;SDS011;47978;49.118;12.146;2023-05-20T13:08:43;13.73;;;9.95;;
62024;SDS011;47978;49.118;12.146;2023-05-20T13:12:45;13.88;;;9.55;;
62024;SDS011;47978;49.118;12.146;2023-05-20T13:16:48;18.75;;;10.70;;
62024;SDS011;47978;49.118;12.146;2023-05-20T13:20:51;15.48;;;10.00;;
62024;SDS011;47978;49.118;12.146;2023-05-20T13:24:52;14.50;;;9.18;;
62024;SDS011;47978;49.118;12.146;2023-05-20T13:28:54;15.25;;;8.10;;
62024;SDS011;47978;49.118;12.146;2023-05-20T13:32:57;13.93;;;8.43;;
62024;SDS011;47978;49.118;12.146;2023-05-20T13:36:58;11.55;;;7.72;;
62024;SDS011;47978;49.118;12.146;2023-05-20T13:41:00;9.18;;;6.70;;
62024;SDS011;47978;49.118;12.146;2023-05-20T13:45:02;12.25;;;8.80;;
62024;SDS011;47978;49.118;12.146;2023-05-20T13:49:05;12.70;;;7.95;;
62024;SDS011;47978;49.118;12.146;2023-05-20T13:53:07;13.90;;;8.10;;
62024;SDS011;47978;49.118;12.146;2023-05-20T13:57:08;14.80;;;8.18;;
62024;SDS011;47978;49.118;12.146;2023-05-20T14:01:10;15.05;;;8.13;;
62024;SDS011;47978;49.118;12.146;2023-05-20T14:05:13;12.27;;;8.73;;
62024;SDS011;47978;49.118;12.146;2023-05-20T14:09:15;9.93;;;7.80;;
62024;SDS011;47978;49.118;12.146;2023-05-20T14:13:17;12.35;;;8.80;;
62024;SDS011;47978;49.118;12.146;2023-05-20T14:17:18;11.27;;;7.55;;
62024;SDS011;47978;49.118;12.146;2023-05-20T14:21:21;12.25;;;8.18;;
62024;SDS011;47978;49.118;12.146;2023-05-20T14:25:23;10.73;;;8.15;;
62024;SDS011;47978;49.118;12.146;2023-05-20T14:29:24;12.07;;;8.48;;
62024;SDS011;47978;49.118;12.146;2023-05-20T14:33:26;21.45;;;13.85;;
62024;SDS011;47978;49.118;12.146;2023-05-20T14:37:29;14.00;;;10.05;;
62024;SDS011;47978;49.118;12.146;2023-05-20T14:41:30;23.25;;;18.23;;
62024;SDS011;47978;49.118;12.146;2023-05-20T14:45:32;11.65;;;8.65;;
62024;SDS011;47978;49.118;12.146;2023-05-20T14:49:34;10.57;;;7.63;;
62024;SDS011;47978;49.118;12.146;2023-05-20T14:53:37;10.23;;;7.97;;
62024;SDS011;47978;49.118;12.146;2023-05-20T14:57:39;12.43;;;8.27;;
62024;SDS011;47978;49.118;12.146;2023-05-20T15:01:40;10.65;;;7.78;;
62024;SDS011;47978;49.118;12.146;2023-05-20T15:05:42;10.95;;;7.55;;
62024;SDS011;47978;49.118;12.146;2023-05-20T15:09:45;11.70;;;8.25;;
62024;SDS011;47978;49.118;12.146;2023-05-20T15:13:46;11.65;;;8.10;;
62024;SDS011;47978;49.118;12.146;2023-05-20T15:17:48;12.55;;;8.20;;
62024;SDS011;47978;49.118;12.146;2023-05-20T15:21:50;12.82;;;7.30;;
62024;SDS011;47978;49.118;12.146;2023-05-20T15:25:52;11.23;;;7.78;;
62024;SDS011;47978;49.118;12.146;2023-05-20T15:29:54;11.02;;;7.45;;
62024;SDS011;47978;49.118;12.146;2023-05-20T15:33:56;9.57;;;7.43;;
62024;SDS011;47978;49.118;12.146;2023-05-20T15:37:57;11.30;;;6.95;;
62024;SDS011;47978;49.118;12.146;2023-05-20T15:46:03;12.88;;;7.28;;
62024;SDS011;47978;49.118;12.146;2023-05-20T15:50:05;13.05;;;7.47;;
62024;SDS011;47978;49.118;12.146;2023-05-20T15:54:07;12.55;;;7.45;;
62024;SDS011;47978;49.118;12.146;2023-05-20T15:58:10;11.55;;;7.97;;
62024;SDS011;47978;49.118;12.146;2023-05-20T16:02:12;10.05;;;7.15;;
62024;SDS011;47978;49.118;12.146;2023-05-20T16:06:13;11.10;;;8.18;;
62024;SDS011;47978;49.118;12.146;2023-05-20T16:10:15;12.75;;;8.75;;
62024;SDS011;47978;49.118;12.146;2023-05-20T16:14:18;10.90;;;8.15;;
62024;SDS011;47978;49.118;12.146;2023-05-20T16:18:20;11.93;;;8.32;;
62024;SDS011;47978;49.118;12.146;2023-05-20T16:22:21;11.27;;;8.73;;
62024;SDS011;47978;49.118;12.146;2023-05-20T16:26:23;13.20;;;8.80;;
62024;SDS011;47978;49.118;12.146;2023-05-20T16:30:26;12.00;;;8.63;;
62024;SDS011;47978;49.118;12.146;2023-05-20T16:34:27;12.32;;;8.07;;
62024;SDS011;47978;49.118;12.146;2023-05-20T16:38:29;13.50;;;8.35;;
62024;SDS011;47978;49.118;12.146;2023-05-20T16:42:30;11.85;;;8.07;;
62024;SDS011;47978;49.118;12.146;2023-05-20T16:46:33;12.35;;;8.55;;
62024;SDS011;47978;49.118;12.146;2023-05-20T16:50:35;13.15;;;8.00;;
62024;SDS011;47978;49.118;12.146;2023-05-20T16:54:36;9.82;;;7.65;;
62024;SDS011;47978;49.118;12.146;2023-05-20T16:58:38;12.77;;;8.25;;
62024;SDS011;47978;49.118;12.146;2023-05-20T17:02:41;11.68;;;7.63;;
62024;SDS011;47978;49.118;12.146;2023-05-20T17:06:43;12.88;;;8.38;;
62024;SDS011;47978;49.118;12.146;2023-05-20T17:10:44;10.80;;;7.80;;
62024;SDS011;47978;49.118;12.146;2023-05-20T17:14:46;13.45;;;8.20;;
62024;SDS011;47978;49.118;12.146;2023-05-20T17:18:49;11.95;;;6.95;;
62024;SDS011;47978;49.118;12.146;2023-05-20T17:22:50;13.88;;;8.48;;
62024;SDS011;47978;49.118;12.146;2023-05-20T17:26:52;14.60;;;8.10;;
62024;SDS011;47978;49.118;12.146;2023-05-20T17:30:54;11.35;;;7.70;;
62024;SDS011;47978;49.118;12.146;2023-05-20T17:34:56;13.88;;;7.97;;
62024;SDS011;47978;49.118;12.146;2023-05-20T17:38:58;12.88;;;8.10;;
62024;SDS011;47978;49.118;12.146;2023-05-20T17:42:59;11.77;;;8.10;;
62024;SDS011;47978;49.118;12.146;2023-05-20T17:47:01;13.35;;;8.73;;
62024;SDS011;47978;49.118;12.146;2023-05-20T17:51:04;13.90;;;8.20;;
62024;SDS011;47978;49.118;12.146;2023-05-20T17:55:06;14.00;;;8.43;;
62024;SDS011;47978;49.118;12.146;2023-05-20T17:59:08;13.52;;;8.23;;
62024;SDS011;47978;49.118;12.146;2023-05-20T18:03:09;15.57;;;8.38;;
62024;SDS011;47978;49.118;12.146;2023-05-20T18:07:12;13.43;;;8.85;;
62024;SDS011;47978;49.118;12.146;2023-05-20T18:11:14;12.13;;;7.53;;
62024;SDS011;47978;49.118;12.146;2023-05-20T18:15:16;13.32;;;8.18;;
62024;SDS011;47978;49.118;12.146;2023-05-20T18:19:17;15.27;;;8.70;;
62024;SDS011;47978;49.118;12.146;2023-05-20T18:23:20;12.90;;;8.27;;
62024;SDS011;47978;49.118;12.146;2023-05-20T18:27:22;19.13;;;8.77;;
62024;SDS011;47978;49.118;12.146;2023-05-20T18:31:24;14.27;;;8.75;;
62024;SDS011;47978;49.118;12.146;2023-05-20T18:35:26;10.98;;;8.68;;
62024;SDS011;47978;49.118;12.146;2023-05-20T18:39:28;13.52;;;8.48;;
62024;SDS011;47978;49.118;12.146;2023-05-20T18:47:31;18.05;;;9.02;;
62024;SDS011;47978;49.118;12.146;2023-05-20T18:51:33;14.52;;;9.10;;
62024;SDS011;47978;49.118;12.146;2023-05-20T18:55:36;15.65;;;9.30;;
62024;SDS011;47978;49.118;12.146;2023-05-20T19:03:39;15.15;;;10.57;;
62024;SDS011;47978;49.118;12.146;2023-05-20T19:07:41;18.63;;;10.43;;
62024;SDS011;47978;49.118;12.146;2023-05-20T19:11:43;13.48;;;9.77;;
62024;SDS011;47978;49.118;12.146;2023-05-20T19:19:46;17.25;;;10.85;;
62024;SDS011;47978;49.118;12.146;2023-05-20T19:23:48;16.75;;;10.13;;
62024;SDS011;47978;49.118;12.146;2023-05-20T19:27:51;16.40;;;10.52;;
62024;SDS011;47978;49.118;12.146;2023-05-20T19:31:53;16.85;;;10.70;;
62024;SDS011;47978;49.118;12.146;2023-05-20T19:35:55;28.83;;;12.93;;
62024;SDS011;47978;49.118;12.146;2023-05-20T19:39:57;17.75;;;11.00;;
62024;SDS011;47978;49.118;12.146;2023-05-20T19:44:00;20.75;;;11.02;;
62024;SDS011;47978;49.118;12.146;2023-05-20T19:48:01;16.85;;;10.90;;
62024;SDS011;47978;49.118;12.146;2023-05-20T19:52:03;23.23;;;11.82;;
62024;SDS011;47978;49.118;12.146;2023-05-20T19:56:06;19.42;;;12.02;;
62024;SDS011;47978;49.118;12.146;2023-05-20T20:00:09;23.65;;;12.00;;
62024;SDS011;47978;49.118;12.146;2023-05-20T20:04:12;18.20;;;11.48;;
62024;SDS011;47978;49.118;12.146;2023-05-20T20:08:13;20.15;;;12.93;;
62024;SDS011;47978;49.118;12.146;2023-05-20T20:12:15;23.60;;;12.15;;
62024;SDS011;47978;49.118;12.146;2023-05-20T20:16:18;20.85;;;12.48;;
62024;SDS011;47978;49.118;12.146;2023-05-20T20:24:21;20.90;;;12.32;;
62024;SDS011;47978;49.118;12.146;2023-05-20T20:28:23;19.58;;;12.38;;
62024;SDS011;47978;49.118;12.146;2023-05-20T20:32:26;21.17;;;12.73;;
62024;SDS011;47978;49.118;12.146;2023-05-20T20:36:27;20.52;;;12.93;;
62024;SDS011;47978;49.118;12.146;2023-05-20T20:40:29;24.08;;;12.75;;
62024;SDS011;47978;49.118;12.146;2023-05-20T20:44:31;27.63;;;14.43;;
62024;SDS011;47978;49.118;12.146;2023-05-20T20:48:33;22.40;;;13.70;;
62024;SDS011;47978;49.118;12.146;2023-05-20T20:52:35;20.45;;;13.02;;
62024;SDS011;47978;49.118;12.146;2023-05-20T20:56:37;23.55;;;13.68;;
62024;SDS011;47978;49.118;12.146;2023-05-20T21:00:38;20.13;;;13.75;;
62024;SDS011;47978;49.118;12.146;2023-05-20T21:04:41;22.23;;;13.73;;
62024;SDS011;47978;49.118;12.146;2023-05-20T21:12:44;26.00;;;15.82;;
62024;SDS011;47978;49.118;12.146;2023-05-20T21:16:46;22.60;;;13.38;;
62024;SDS011;47978;49.118;12.146;2023-05-20T21:20:49;26.48;;;14.30;;
62024;SDS011;47978;49.118;12.146;2023-05-20T21:24:51;23.00;;;13.82;;
62024;SDS011;47978;49.118;12.146;2023-05-20T21:28:53;24.67;;;14.93;;
62024;SDS011;47978;49.118;12.146;2023-05-20T21:32:54;20.55;;;13.43;;
62024;SDS011;47978;49.118;12.146;2023-05-20T21:36:57;22.42;;;14.02;;
62024;SDS011;47978;49.118;12.146;2023-05-20T21:40:59;23.25;;;14.93;;
62024;SDS011;47978;49.118;12.146;2023-05-20T21:45:01;25.52;;;14.30;;
62024;SDS011;47978;49.118;12.146;2023-05-20T21:49:02;23.08;;;14.68;;
62024;SDS011;47978;49.118;12.146;2023-05-20T21:53:05;23.45;;;15.32;;
62024;SDS011;47978;49.118;12.146;2023-05-20T21:57:07;26.48;;;14.65;;
62024;SDS011;47978;49.118;12.146;2023-05-20T22:01:08;21.92;;;14.02;;
62024;SDS011;47978;49.118;12.146;2023-05-20T22:05:10;22.92;;;14.48;;
62024;SDS011;47978;49.118;12.146;2023-05-20T22:09:13;25.45;;;15.60;;
62024;SDS011;47978;49.118;12.146;2023-05-20T22:13:15;26.13;;;14.35;;
62024;SDS011;47978;49.118;12.146;2023-05-20T22:17:16;25.83;;;14.70;;
62024;SDS011;47978;49.118;12.146;2023-05-20T22:21:18;30.35;;;13.98;;
62024;SDS011;47978;49.118;12.146;2023-05-20T22:25:21;25.40;;;14.02;;
62024;SDS011;47978;49.118;12.146;2023-05-20T22:29:23;23.60;;;14.77;;
62024;SDS011;47978;49.118;12.146;2023-05-20T22:33:24;22.42;;;13.60;;
62024;SDS011;47978;49.118;12.146;2023-05-20T22:37:26;21.10;;;12.93;;
62024;SDS011;47978;49.118;12.146;2023-05-20T22:41:29;20.77;;;14.20;;
62024;SDS011;47978;49.118;12.146;2023-05-20T22:45:30;23.08;;;13.35;;
62024;SDS011;47978;49.118;12.146;2023-05-20T22:49:32;22.73;;;13.50;;
62024;SDS011;47978;49.118;12.146;2023-05-20T22:53:33;22.40;;;13.27;;
62024;SDS011;47978;49.118;12.146;2023-05-20T22:57:36;23.10;;;13.52;;
62024;SDS011;47978;49.118;12.146;2023-05-20T23:01:38;21.77;;;14.02;;
62024;SDS011;47978;49.118;12.146;2023-05-20T23:05:40;20.33;;;13.02;;
62024;SDS011;47978;49.118;12.146;2023-05-20T23:09:41;18.50;;;12.43;;
62024;SDS011;47978;49.118;12.146;2023-05-20T23:13:44;22.10;;;13.30;;
62024;SDS011;47978;49.118;12.146;2023-05-20T23:17:46;22.60;;;12.57;;
62024;SDS011;47978;49.118;12.146;2023-05-20T23:21:50;19.83;;;12.57;;
62024;SDS011;47978;49.118;12.146;2023-05-20T23:25:52;20.15;;;12.55;;
62024;SDS011;47978;49.118;12.146;2023-05-20T23:29:55;19.38;;;11.90;;
62024;SDS011;47978;49.118;12.146;2023-05-20T23:33:57;19.27;;;11.60;;
62024;SDS011;47978;49.118;12.146;2023-05-20T23:37:59;21.27;;;11.93;;
62024;SDS011;47978;49.118;12.146;2023-05-20T23:42:00;20.15;;;13.15;;
62024;SDS011;47978;49.118;12.146;2023-05-20T23:46:03;21.55;;;12.88;;
62024;SDS011;47978;49.118;12.146;2023-05-20T23:54:07;18.73;;;12.90;;
62024;SDS011;47978;49.118;12.146;2023-05-20T23:58:08;20.85;;;12.38;;
